Time;durP1;ratioP1;P1;durP2;ratioP2;P2;SDS_P1;SDS_P2;PMS_P1;PMS_P2;Temp;Humidity;BMP_temperature;BMP_pressure;BME280_temperature;BME280_humidity;BME280_pressure;Samples;Min_cycle;Max_cycle;Signal;HPM_P1;HPM_P2
2024/02/02 00:00:53;;;;;;;23.70;13.10;;;;;;;8.64;51.53;99691.36;108068;1259;60306;-67
2024/02/02 00:03:20;;;;;;;25.90;13.30;;;;;;;8.61;51.69;99693.37;108163;1253;74211;-66
2024/02/02 00:05:48;;;;;;;22.80;12.70;;;;;;;8.29;52.28;99689.41;108145;1253;69482;-68
2024/02/02 00:08:16;;;;;;;22.00;12.30;;;;;;;8.18;52.47;99692.20;108164;1253;71055;-66
2024/02/02 00:10:44;;;;;;;25.30;13.50;;;;;;;8.10;52.76;99689.34;108063;1254;60880;-66
2024/02/02 00:13:11;;;;;;;23.10;12.80;;;;;;;7.97;53.14;99687.86;107976;1253;160287;-65
2024/02/02 00:16:33;;;;;;;23.10;11.90;;;;;;;6.64;57.16;99689.54;104947;1293;600960;-66
2024/02/02 00:19:00;;;;;;;22.40;12.10;;;;;;;7.44;55.05;99688.16;107305;1264;59687;-66
2024/02/02 00:21:29;;;;;;;22.20;11.40;;;;;;;7.69;54.42;99684.40;107298;1264;59091;-64
2024/02/02 00:23:56;;;;;;;23.00;12.60;;;;;;;7.73;54.28;99682.00;107322;1263;70961;-66
2024/02/02 00:26:25;;;;;;;20.20;12.30;;;;;;;7.77;54.13;99683.78;107351;1264;70267;-66
2024/02/02 00:28:53;;;;;;;27.30;12.40;;;;;;;7.75;54.10;99679.83;107274;1263;72695;-65
2024/02/02 00:31:22;;;;;;;27.00;12.80;;;;;;;7.51;54.63;99684.09;107262;1260;115494;-65
2024/02/02 00:33:49;;;;;;;22.10;12.00;;;;;;;7.62;54.44;99686.88;107397;1262;59259;-66
2024/02/02 00:36:17;;;;;;;20.70;11.00;;;;;;;7.71;54.12;99684.13;107445;1263;70983;-65
2024/02/02 00:38:45;;;;;;;22.40;12.00;;;;;;;7.54;54.52;99680.68;107392;1263;69052;-66
2024/02/02 00:41:13;;;;;;;21.60;11.20;;;;;;;7.62;54.29;99680.42;107337;1263;71715;-66
2024/02/02 00:43:41;;;;;;;22.80;11.90;;;;;;;7.49;54.42;99679.99;107356;1263;60900;-65
2024/02/02 00:46:08;;;;;;;17.90;10.50;;;;;;;7.39;54.61;99676.08;107365;1264;59816;-66
2024/02/02 00:48:38;;;;;;;21.40;10.50;;;;;;;7.14;55.42;99673.54;107378;1263;72005;-65
2024/02/02 00:51:06;;;;;;;21.20;10.30;;;;;;;7.26;55.07;99676.65;107423;1264;69384;-63
2024/02/02 00:53:34;;;;;;;23.20;11.10;;;;;;;7.24;55.12;99677.94;107363;1264;72656;-65
2024/02/02 00:56:01;;;;;;;21.50;10.10;;;;;;;7.34;54.69;99674.84;107455;1263;60873;-65
2024/02/02 00:58:29;;;;;;;23.10;11.50;;;;;;;7.43;54.54;99669.87;107352;1268;59574;-66
2024/02/02 01:00:56;;;;;;;21.20;10.40;;;;;;;7.30;54.79;99672.86;107349;1262;73117;-65
2024/02/02 01:03:24;;;;;;;19.00;10.70;;;;;;;7.27;54.95;99672.97;107351;1264;70577;-63
2024/02/02 01:05:52;;;;;;;21.70;10.50;;;;;;;7.16;55.32;99678.19;107384;1263;71378;-63
2024/02/02 01:08:20;;;;;;;19.40;9.80;;;;;;;7.22;55.08;99675.73;107432;1263;61109;-65
2024/02/02 01:10:47;;;;;;;16.30;9.20;;;;;;;7.24;54.98;99673.75;107366;1264;59540;-63
2024/02/02 01:13:15;;;;;;;19.00;10.00;;;;;;;7.20;54.83;99678.04;107402;1263;75061;-65
2024/02/02 01:15:43;;;;;;;18.80;9.80;;;;;;;7.16;55.11;99673.46;107411;1263;69190;-67
2024/02/02 01:18:12;;;;;;;15.80;8.90;;;;;;;7.11;55.08;99667.33;107868;1257;72207;-65
2024/02/02 01:20:42;;;;;;;19.20;10.30;;;;;;;7.04;55.36;99668.07;107932;1254;60881;-66
2024/02/02 01:23:09;;;;;;;21.20;9.10;;;;;;;7.03;55.37;99670.38;107791;1254;60003;-67
2024/02/02 01:25:37;;;;;;;17.90;9.00;;;;;;;6.94;55.62;99669.08;107861;1254;72855;-66
2024/02/02 01:28:05;;;;;;;22.40;9.00;;;;;;;7.01;55.49;99668.35;107963;1254;70264;-66
2024/02/02 01:30:33;;;;;;;15.60;8.70;;;;;;;7.19;54.95;99667.80;107973;1254;71420;-64
2024/02/02 01:33:00;;;;;;;19.50;9.50;;;;;;;7.11;55.04;99661.23;107963;1257;59791;-67
2024/02/02 01:35:28;;;;;;;22.30;9.40;;;;;;;7.02;55.13;99665.00;108022;1254;58994;-66
2024/02/02 01:37:56;;;;;;;19.00;8.60;;;;;;;7.13;54.92;99667.99;108073;1260;73031;-65
2024/02/02 01:40:24;;;;;;;16.40;8.80;;;;;;;7.18;54.88;99671.32;107921;1254;69062;-65
2024/02/02 01:42:52;;;;;;;18.40;8.50;;;;;;;7.23;54.74;99677.09;107956;1254;71594;-65
2024/02/02 01:45:19;;;;;;;18.60;9.00;;;;;;;7.10;54.92;99675.74;107970;1254;61036;-66
2024/02/02 01:47:47;;;;;;;20.30;8.90;;;;;;;7.04;55.29;99678.88;107922;1259;59612;-66
2024/02/02 01:50:15;;;;;;;18.70;8.50;;;;;;;7.05;55.39;99681.67;108211;1251;73006;-67
2024/02/02 01:52:42;;;;;;;19.10;8.70;;;;;;;6.97;55.63;99684.51;108280;1251;70691;-64
2024/02/02 01:55:10;;;;;;;15.50;8.10;;;;;;;7.01;55.43;99685.80;108311;1251;72698;-65
2024/02/02 01:57:39;;;;;;;19.60;8.80;;;;;;;7.06;55.12;99689.15;108132;1251;60009;-66
2024/02/02 02:00:07;;;;;;;16.60;8.50;;;;;;;7.11;55.09;99687.79;108248;1251;60068;-66
2024/02/02 02:02:38;;;;;;;16.50;8.00;;;;;;;7.17;54.81;99683.93;108175;1258;72868;-65
2024/02/02 02:05:06;;;;;;;20.60;8.30;;;;;;;7.24;54.73;99689.98;108225;1251;69153;-66
2024/02/02 02:07:34;;;;;;;25.20;8.90;;;;;;;7.23;54.83;99696.30;108284;1256;72996;-66
2024/02/02 02:10:03;;;;;;;17.10;8.50;;;;;;;7.26;54.75;99699.17;108239;1256;59557;-64
2024/02/02 02:12:31;;;;;;;17.00;8.60;;;;;;;7.21;54.95;99703.01;108217;1251;60006;-66
2024/02/02 02:14:59;;;;;;;19.60;8.20;;;;;;;7.21;54.89;99704.23;108242;1256;71833;-64
2024/02/02 02:17:27;;;;;;;16.10;8.00;;;;;;;7.23;54.95;99702.92;108393;1251;69750;-65
2024/02/02 02:19:57;;;;;;;12.70;6.80;;;;;;;7.31;54.99;99703.56;108193;1251;72455;-66
2024/02/02 02:22:25;;;;;;;20.90;8.10;;;;;;;7.19;55.26;99704.63;108314;1251;59659;-66
2024/02/02 02:24:52;;;;;;;16.00;7.40;;;;;;;7.38;54.97;99697.63;108326;1251;59680;-66
2024/02/02 02:27:20;;;;;;;18.60;7.80;;;;;;;7.46;54.81;99701.20;108159;1251;72007;-67
2024/02/02 02:29:47;;;;;;;15.60;7.80;;;;;;;7.48;54.55;99706.17;108382;1251;70001;-66
2024/02/02 02:32:15;;;;;;;21.90;8.20;;;;;;;7.63;54.31;99707.80;108349;1251;71435;-66
2024/02/02 02:34:43;;;;;;;20.70;8.60;;;;;;;7.79;53.93;99706.45;108167;1251;60903;-64
2024/02/02 02:37:11;;;;;;;14.70;7.10;;;;;;;7.65;53.86;99711.77;108296;1253;59650;-67
2024/02/02 02:39:38;;;;;;;20.60;8.00;;;;;;;7.82;53.66;99713.52;108240;1251;71810;-64
2024/02/02 02:42:06;;;;;;;13.60;6.50;;;;;;;7.89;53.41;99713.80;108315;1251;72748;-64
2024/02/02 02:44:34;;;;;;;16.00;6.80;;;;;;;7.93;53.31;99712.63;108230;1253;72306;-65
2024/02/02 02:47:01;;;;;;;17.90;8.60;;;;;;;8.07;53.07;99712.52;108273;1254;59806;-63
2024/02/02 02:49:29;;;;;;;15.00;6.60;;;;;;;8.14;52.75;99715.59;108295;1257;60166;-66
2024/02/02 02:51:58;;;;;;;16.80;7.50;;;;;;;8.12;52.79;99713.20;108265;1251;71737;-66
2024/02/02 02:54:25;;;;;;;14.70;6.70;;;;;;;8.18;52.41;99710.39;108287;1251;70335;-66
2024/02/02 02:56:53;;;;;;;13.70;6.40;;;;;;;8.14;52.45;99708.42;108325;1254;71371;-66
2024/02/02 02:59:21;;;;;;;21.50;7.20;;;;;;;8.03;52.55;99712.83;108371;1251;60890;-65
2024/02/02 03:01:48;;;;;;;13.60;7.00;;;;;;;7.95;52.67;99714.48;108285;1251;59554;-65
2024/02/02 03:04:16;;;;;;;16.10;6.70;;;;;;;7.95;52.78;99711.02;108350;1251;72980;-66
2024/02/02 03:06:43;;;;;;;15.20;5.90;;;;;;;8.03;52.77;99708.60;108330;1251;68687;-65
2024/02/02 03:09:11;;;;;;;15.90;6.70;;;;;;;8.17;52.29;99712.35;108270;1254;70454;-66
2024/02/02 03:11:39;;;;;;;15.50;6.60;;;;;;;8.20;52.18;99719.42;108289;1253;59594;-67
2024/02/02 03:14:07;;;;;;;15.10;6.70;;;;;;;8.22;51.90;99719.71;108201;1251;60035;-66
2024/02/02 03:16:34;;;;;;;15.10;6.60;;;;;;;8.29;51.68;99720.34;108157;1253;73050;-67
2024/02/02 03:19:02;;;;;;;13.20;6.80;;;;;;;8.33;51.27;99717.75;108240;1254;69545;-65
2024/02/02 03:21:30;;;;;;;14.60;6.30;;;;;;;8.24;51.30;99719.11;108119;1253;72650;-66
2024/02/02 03:23:57;;;;;;;16.00;6.50;;;;;;;8.12;51.54;99724.58;108134;1254;61373;-66
2024/02/02 03:26:25;;;;;;;13.50;6.40;;;;;;;7.96;51.71;99724.05;108078;1252;59133;-66
2024/02/02 03:28:52;;;;;;;19.10;6.40;;;;;;;7.94;51.82;99722.91;108100;1253;73114;-66
2024/02/02 03:31:20;;;;;;;18.30;6.50;;;;;;;7.99;51.64;99721.52;108234;1254;70136;-67
2024/02/02 03:33:48;;;;;;;17.00;6.70;;;;;;;7.92;51.75;99730.16;108062;1253;71432;-65
2024/02/02 03:36:16;;;;;;;18.20;6.70;;;;;;;7.87;51.87;99736.77;108051;1254;60911;-65
2024/02/02 03:38:43;;;;;;;16.20;7.00;;;;;;;7.82;52.07;99740.08;108200;1253;59528;-66
2024/02/02 03:41:11;;;;;;;17.20;6.70;;;;;;;7.87;52.02;99743.75;108205;1252;73055;-64
2024/02/02 03:43:38;;;;;;;19.70;6.80;;;;;;;7.85;52.25;99749.92;108132;1254;69507;-65
2024/02/02 03:46:06;;;;;;;13.40;5.90;;;;;;;7.78;52.44;99747.70;108051;1257;72640;-66
2024/02/02 03:48:33;;;;;;;19.40;7.10;;;;;;;7.88;52.49;99750.21;108011;1254;60914;-66
2024/02/02 03:51:01;;;;;;;15.10;6.00;;;;;;;7.96;52.15;99752.05;108137;1255;59728;-65
2024/02/02 03:53:29;;;;;;;13.70;6.30;;;;;;;7.65;52.84;99756.67;108070;1254;72539;-66
2024/02/02 03:55:58;;;;;;;14.80;5.80;;;;;;;7.55;52.95;99753.86;108016;1254;68936;-68
2024/02/02 03:58:25;;;;;;;16.50;5.80;;;;;;;7.60;52.56;99757.36;108015;1254;72700;-66
2024/02/02 04:00:53;;;;;;;14.30;5.50;;;;;;;7.76;52.32;99753.90;108130;1253;60832;-66
2024/02/02 04:03:21;;;;;;;13.30;5.70;;;;;;;7.71;52.39;99755.95;108182;1253;59496;-67
2024/02/02 04:05:48;;;;;;;16.80;6.20;;;;;;;7.67;52.18;99760.28;108282;1253;71840;-66
2024/02/02 04:08:16;;;;;;;13.70;6.10;;;;;;;7.69;52.22;99763.02;108148;1253;68969;-65
2024/02/02 04:10:44;;;;;;;15.20;6.30;;;;;;;7.80;51.88;99765.33;108057;1256;72957;-67
2024/02/02 04:13:11;;;;;;;13.30;6.10;;;;;;;7.75;51.91;99769.30;108199;1253;61771;-67
2024/02/02 04:15:39;;;;;;;12.70;6.20;;;;;;;7.62;52.27;99773.20;108172;1253;59506;-66
2024/02/02 04:18:07;;;;;;;11.70;5.70;;;;;;;7.83;51.64;99774.67;108127;1254;71811;-67
2024/02/02 04:20:35;;;;;;;18.20;6.80;;;;;;;7.82;51.63;99775.04;108180;1253;70424;-66
2024/02/02 04:23:03;;;;;;;20.40;5.90;;;;;;;7.79;51.63;99780.88;108082;1254;73134;-66
2024/02/02 04:25:30;;;;;;;21.70;6.00;;;;;;;7.75;51.68;99777.68;108198;1254;60315;-67
2024/02/02 04:27:58;;;;;;;11.60;5.70;;;;;;;7.87;51.23;99781.17;108129;1254;60469;-67
2024/02/02 04:30:25;;;;;;;19.30;5.80;;;;;;;7.84;51.07;99789.48;108053;1253;73961;-67
2024/02/02 04:32:53;;;;;;;12.40;5.10;;;;;;;7.89;50.91;99794.55;108077;1257;70557;-66
2024/02/02 04:35:21;;;;;;;17.00;5.60;;;;;;;7.79;50.96;99799.07;108119;1253;71086;-66
2024/02/02 04:37:49;;;;;;;13.10;5.60;;;;;;;7.69;50.93;99808.80;108076;1253;60940;-67
2024/02/02 04:40:16;;;;;;;20.60;5.70;;;;;;;7.66;51.05;99810.64;108072;1253;60533;-67
2024/02/02 04:42:44;;;;;;;20.30;6.20;;;;;;;7.44;51.15;99812.88;108084;1253;72698;-65
2024/02/02 04:45:12;;;;;;;15.80;5.90;;;;;;;7.44;51.43;99820.20;108117;1254;70492;-65
2024/02/02 04:47:39;;;;;;;16.60;5.80;;;;;;;7.43;51.36;99824.95;108062;1254;71807;-65
2024/02/02 04:50:07;;;;;;;13.90;5.20;;;;;;;7.38;51.20;99825.98;108045;1254;60889;-65
2024/02/02 04:52:35;;;;;;;14.80;5.10;;;;;;;7.33;51.49;99827.50;108098;1253;60290;-64
2024/02/02 04:55:04;;;;;;;13.70;5.10;;;;;;;7.42;50.97;99828.84;108089;1253;72555;-64
2024/02/02 04:57:32;;;;;;;14.80;4.60;;;;;;;7.44;50.94;99832.77;108080;1254;70503;-65
2024/02/02 05:00:00;;;;;;;16.30;4.70;;;;;;;7.44;51.09;99832.27;108031;1254;72111;-66
2024/02/02 05:02:27;;;;;;;12.00;4.30;;;;;;;7.49;50.70;99829.33;108038;1254;61260;-67
2024/02/02 05:04:55;;;;;;;12.70;4.20;;;;;;;7.51;50.51;99834.32;108055;1253;60433;-67
2024/02/02 05:07:22;;;;;;;14.90;4.30;;;;;;;7.45;50.07;99840.45;108038;1254;74045;-65
2024/02/02 05:09:50;;;;;;;14.10;4.10;;;;;;;7.44;49.76;99841.88;108166;1254;69203;-66
2024/02/02 05:12:17;;;;;;;12.40;3.70;;;;;;;7.45;50.17;99841.50;108122;1254;72781;-66
2024/02/02 05:14:46;;;;;;;13.10;3.70;;;;;;;7.54;49.57;99841.58;108037;1254;60907;-67
2024/02/02 05:17:14;;;;;;;9.50;3.60;;;;;;;7.39;49.43;99847.42;108186;1253;60450;-66
2024/02/02 05:19:41;;;;;;;13.90;3.80;;;;;;;7.37;50.06;99850.96;108202;1253;72997;-65
2024/02/02 05:22:09;;;;;;;16.00;4.10;;;;;;;7.44;49.55;99855.65;108141;1253;71059;-66
2024/02/02 05:24:37;;;;;;;13.40;4.00;;;;;;;7.39;49.25;99857.38;108236;1252;73544;-67
2024/02/02 05:27:12;;;;;;;17.30;3.30;;;;;;;7.43;49.23;99864.61;108163;1252;60813;-66
2024/02/02 05:29:42;;;;;;;11.60;4.10;;;;;;;7.47;49.04;99869.20;108164;1256;60273;-65
2024/02/02 05:32:10;;;;;;;13.80;3.80;;;;;;;7.48;49.09;99875.27;108169;1252;73290;-66
2024/02/02 05:34:38;;;;;;;14.40;3.40;;;;;;;7.52;48.93;99876.75;108270;1253;69926;-67
2024/02/02 05:37:06;;;;;;;10.40;3.60;;;;;;;7.52;49.00;99881.47;108266;1253;71639;-66
2024/02/02 05:39:34;;;;;;;11.10;3.90;;;;;;;7.46;49.03;99884.09;108260;1254;60459;-65
2024/02/02 05:42:01;;;;;;;9.60;3.00;;;;;;;7.56;48.49;99888.69;108306;1253;59482;-66
2024/02/02 05:44:29;;;;;;;12.30;3.60;;;;;;;7.67;48.29;99888.02;108177;1252;73807;-66
2024/02/02 05:46:57;;;;;;;12.20;3.50;;;;;;;7.71;48.06;99894.70;108218;1251;70590;-66
2024/02/02 05:49:25;;;;;;;10.90;3.70;;;;;;;7.76;47.76;99893.52;108250;1254;72432;-66
2024/02/02 05:51:52;;;;;;;14.20;3.80;;;;;;;7.93;47.57;99893.57;108227;1253;60460;-66
2024/02/02 05:54:20;;;;;;;9.30;3.10;;;;;;;7.97;47.32;99893.77;108237;1257;60574;-67
2024/02/02 05:56:48;;;;;;;14.30;3.30;;;;;;;7.98;47.31;99890.95;108237;1253;73010;-66
2024/02/02 05:59:15;;;;;;;16.00;3.00;;;;;;;8.05;47.23;99890.93;108195;1253;69940;-67
2024/02/02 06:01:43;;;;;;;16.80;4.10;;;;;;;8.06;46.92;99898.40;108272;1253;72598;-67
2024/02/02 06:04:10;;;;;;;8.20;3.10;;;;;;;8.00;47.11;99898.77;108248;1254;60309;-66
2024/02/02 06:06:38;;;;;;;10.90;3.10;;;;;;;7.98;46.74;99900.05;108199;1253;60292;-67
2024/02/02 06:09:09;;;;;;;10.90;3.20;;;;;;;7.91;46.44;99902.36;108293;1254;75863;-66
2024/02/02 06:11:37;;;;;;;14.10;3.30;;;;;;;8.01;46.48;99903.80;108197;1256;68839;-66
2024/02/02 06:14:05;;;;;;;11.90;3.10;;;;;;;8.15;45.84;99901.25;108160;1254;71173;-64
2024/02/02 06:16:32;;;;;;;15.40;3.70;;;;;;;8.08;45.76;99908.84;108217;1256;60331;-62
2024/02/02 06:19:00;;;;;;;14.20;3.10;;;;;;;8.13;45.86;99913.95;108237;1254;60369;-67
2024/02/02 06:21:28;;;;;;;13.40;3.00;;;;;;;8.11;45.41;99914.15;108180;1254;72614;-63
2024/02/02 06:23:55;;;;;;;14.10;3.70;;;;;;;8.38;45.32;99914.40;108282;1254;70019;-64
2024/02/02 06:26:24;;;;;;;10.90;3.00;;;;;;;8.40;44.99;99910.48;108262;1253;71662;-66
2024/02/02 06:28:51;;;;;;;15.20;3.60;;;;;;;8.38;44.98;99921.58;108238;1253;60889;-66
2024/02/02 06:31:21;;;;;;;16.40;3.70;;;;;;;8.28;45.28;99924.85;108203;1251;60190;-65
2024/02/02 06:33:49;;;;;;;10.70;2.60;;;;;;;8.28;45.06;99925.04;108187;1252;72929;-66
2024/02/02 06:36:17;;;;;;;8.70;3.00;;;;;;;8.41;45.45;99927.95;108134;1252;69162;-68
2024/02/02 06:38:44;;;;;;;14.60;3.00;;;;;;;8.67;45.27;99930.48;108107;1253;72713;-66
2024/02/02 06:41:12;;;;;;;8.80;2.80;;;;;;;9.27;44.96;99932.30;108139;1254;60803;-66
2024/02/02 06:43:39;;;;;;;10.30;2.80;;;;;;;10.05;44.03;99931.59;108053;1253;60438;-67
2024/02/02 06:46:07;;;;;;;8.20;2.60;;;;;;;10.63;42.41;99930.95;108143;1254;74208;-67
2024/02/02 06:48:35;;;;;;;11.30;2.80;;;;;;;11.24;40.77;99936.48;108129;1254;69220;-65
2024/02/02 06:51:03;;;;;;;16.20;2.40;;;;;;;12.00;39.93;99931.36;108026;1253;74852;-67
2024/02/02 06:53:33;;;;;;;12.80;2.20;;;;;;;12.74;38.58;99934.39;108077;1252;60339;-67
2024/02/02 06:56:01;;;;;;;12.00;2.80;;;;;;;13.40;36.97;99933.88;108107;1253;60466;-67
2024/02/02 06:58:31;;;;;;;11.30;2.40;;;;;;;13.97;35.59;99933.73;108127;1253;73098;-65
2024/02/02 07:00:59;;;;;;;11.80;2.90;;;;;;;14.30;34.26;99935.11;108137;1252;68933;-67
2024/02/02 07:03:26;;;;;;;9.40;2.40;;;;;;;14.61;34.31;99937.44;108272;1253;72696;-68
2024/02/02 07:05:54;;;;;;;12.00;2.80;;;;;;;15.07;33.43;99941.54;108139;1253;60430;-66
2024/02/02 07:08:22;;;;;;;10.60;3.10;;;;;;;15.36;32.88;99945.80;108070;1253;60749;-67
2024/02/02 07:10:57;;;;;;;9.80;2.80;;;;;;;15.79;32.38;99947.00;108176;1253;74385;-67
2024/02/02 07:13:26;;;;;;;9.40;2.40;;;;;;;16.06;31.58;99944.22;108194;1253;70445;-67
2024/02/02 07:15:54;;;;;;;12.10;3.10;;;;;;;15.97;30.98;99939.13;108171;1254;73034;-67
2024/02/02 07:18:36;;;;;;;12.60;2.90;;;;;;;15.57;30.97;99940.85;108174;1254;60358;-67
2024/02/02 07:21:04;;;;;;;8.60;2.50;;;;;;;15.26;31.69;99941.63;108216;1252;60228;-67
2024/02/02 07:23:34;;;;;;;8.30;2.70;;;;;;;15.25;32.29;99947.34;108132;1252;73202;-68
2024/02/02 07:26:07;;;;;;;12.40;2.90;;;;;;;15.47;31.81;99945.72;108203;1254;70090;-66
2024/02/02 07:28:37;;;;;;;7.60;2.30;;;;;;;15.48;31.61;99945.29;108187;1253;71704;-67
2024/02/02 07:31:06;;;;;;;10.30;2.60;;;;;;;15.48;31.70;99947.78;108129;1254;60444;-65
2024/02/02 07:33:46;;;;;;;6.80;2.50;;;;;;;15.86;31.39;99950.25;108278;1253;60955;-65
2024/02/02 07:36:25;;;;;;;9.90;2.50;;;;;;;16.41;31.04;99948.05;108136;1253;74206;-66
2024/02/02 07:38:54;;;;;;;7.10;2.50;;;;;;;16.78;30.13;99949.54;108183;1252;72361;-65
2024/02/02 07:41:27;;;;;;;8.40;2.50;;;;;;;16.87;29.43;99946.34;108169;1253;73412;-68
2024/02/02 07:43:59;;;;;;;8.10;2.40;;;;;;;17.27;29.62;99944.70;108154;1254;60417;-68
2024/02/02 07:46:27;;;;;;;14.40;2.70;;;;;;;17.42;28.84;99941.02;108177;1253;60551;-68
2024/02/02 07:48:55;;;;;;;10.10;2.70;;;;;;;17.68;28.69;99943.18;108123;1254;72691;-66
2024/02/02 07:51:24;;;;;;;10.90;2.90;;;;;;;17.84;28.56;99943.68;108212;1253;69979;-68
2024/02/02 07:53:53;;;;;;;7.90;2.60;;;;;;;18.02;28.31;99944.16;108256;1253;71469;-68
2024/02/02 07:56:23;;;;;;;8.90;2.40;;;;;;;18.34;28.53;99948.45;108154;1254;60299;-69
2024/02/02 07:58:50;;;;;;;13.20;2.90;;;;;;;18.56;27.63;99949.34;108261;1251;60337;-69
2024/02/02 08:01:18;;;;;;;10.20;2.30;;;;;;;18.95;27.23;99948.09;108335;1253;74171;-68
2024/02/02 08:03:46;;;;;;;10.80;2.90;;;;;;;19.20;26.54;99950.51;108343;1252;70273;-69
2024/02/02 08:06:14;;;;;;;7.00;2.40;;;;;;;19.21;26.39;99952.92;108262;1253;71324;-68
2024/02/02 08:08:42;;;;;;;8.40;2.80;;;;;;;19.31;26.09;99955.36;108188;1253;60418;-68
2024/02/02 08:11:11;;;;;;;8.50;2.60;;;;;;;19.28;26.27;99956.67;108206;1253;60319;-67
2024/02/02 08:13:39;;;;;;;8.60;2.50;;;;;;;19.24;25.89;99959.82;108218;1253;72974;-68
2024/02/02 08:16:06;;;;;;;11.80;2.50;;;;;;;19.23;26.59;99960.77;108178;1253;72602;-68
2024/02/02 08:18:36;;;;;;;6.70;2.40;;;;;;;19.45;26.01;99959.08;108188;1253;72797;-68
2024/02/02 08:21:04;;;;;;;10.40;2.70;;;;;;;19.69;25.22;99961.39;108173;1254;62372;-69
2024/02/02 08:23:33;;;;;;;8.20;2.60;;;;;;;19.65;25.25;99959.34;108205;1253;60411;-69
2024/02/02 08:26:00;;;;;;;9.60;2.20;;;;;;;19.76;25.25;99966.35;108186;1256;73411;-68
2024/02/02 08:28:28;;;;;;;10.10;2.30;;;;;;;19.94;25.08;99969.94;108190;1254;69432;-68
2024/02/02 08:31:09;;;;;;;7.50;1.80;;;;;;;20.01;24.91;99962.63;108241;1253;72350;-69
2024/02/02 08:33:40;;;;;;;6.50;2.20;;;;;;;20.28;24.57;99960.46;108157;1252;60388;-68
2024/02/02 08:36:09;;;;;;;6.80;2.00;;;;;;;20.32;23.48;99958.05;108309;1253;60308;-69
2024/02/02 08:38:37;;;;;;;14.30;2.60;;;;;;;20.04;24.05;99965.77;108219;1253;73428;-69
2024/02/02 08:41:05;;;;;;;7.30;2.60;;;;;;;19.99;23.98;99966.52;108275;1254;70594;-68
2024/02/02 08:43:35;;;;;;;8.40;2.30;;;;;;;19.68;24.19;99967.52;108245;1256;74701;-69
2024/02/02 08:46:10;;;;;;;9.30;2.30;;;;;;;19.12;24.67;99969.80;108228;1252;60472;-66
2024/02/02 08:48:39;;;;;;;5.40;1.80;;;;;;;18.37;25.28;99970.84;108145;1258;60995;-67
2024/02/02 08:51:33;;;;;;;10.50;2.40;;;;;;;17.59;26.14;99966.34;108216;1253;72602;-68
2024/02/02 08:54:26;;;;;;;9.90;2.30;;;;;;;17.08;26.65;99973.16;108173;1253;70807;-68
2024/02/02 08:57:13;;;;;;;10.50;2.20;;;;;;;16.34;27.46;99978.08;108195;1254;73207;-69
2024/02/02 08:59:43;;;;;;;7.20;2.20;;;;;;;15.71;28.11;99982.48;108200;1254;60000;-65
2024/02/02 09:02:37;;;;;;;10.20;2.40;;;;;;;15.13;28.91;99987.48;108193;1253;59234;-68
2024/02/02 09:05:10;;;;;;;7.10;2.00;;;;;;;14.59;29.70;99983.90;108248;1252;73074;-69
2024/02/02 09:07:38;;;;;;;9.50;2.80;;;;;;;14.26;30.32;99978.77;108251;1254;71263;-69
2024/02/02 09:10:31;;;;;;;13.50;2.60;;;;;;;13.87;30.67;99990.02;108283;1254;74791;-69
2024/02/02 09:13:02;;;;;;;10.30;2.50;;;;;;;13.47;31.54;99998.79;108132;1254;60980;-68
2024/02/02 09:15:32;;;;;;;10.40;2.90;;;;;;;13.26;32.36;99998.63;108257;1254;60350;-68
2024/02/02 09:18:00;;;;;;;11.20;2.90;;;;;;;12.94;32.90;99993.15;108296;1254;76012;-68
2024/02/02 09:20:43;;;;;;;8.40;2.40;;;;;;;12.74;33.30;99993.40;108091;1258;70281;-68
2024/02/02 09:23:13;;;;;;;10.50;2.80;;;;;;;12.92;33.49;99996.22;108195;1254;73944;-68
2024/02/02 09:25:41;;;;;;;7.10;2.10;;;;;;;13.36;32.87;99996.52;108269;1251;59123;-68
2024/02/02 09:28:24;;;;;;;11.10;2.40;;;;;;;14.02;32.53;99997.50;108333;1251;62165;-68
2024/02/02 09:31:00;;;;;;;10.10;2.60;;;;;;;15.09;31.26;99994.06;108179;1254;74227;-68
2024/02/02 09:33:31;;;;;;;9.60;2.50;;;;;;;16.25;29.70;99989.09;108209;1253;70638;-68
2024/02/02 09:36:01;;;;;;;7.50;2.00;;;;;;;17.22;28.37;99980.52;108264;1253;72729;-68
2024/02/02 09:38:32;;;;;;;7.00;2.40;;;;;;;18.07;27.24;99977.74;108178;1256;60367;-68
2024/02/02 09:41:03;;;;;;;6.90;1.90;;;;;;;18.84;25.38;99975.44;108262;1254;62088;-68
2024/02/02 09:43:47;;;;;;;6.20;1.80;;;;;;;18.98;25.01;99972.60;108253;1254;73880;-68
2024/02/02 09:46:20;;;;;;;7.30;2.00;;;;;;;18.67;24.63;99977.90;108216;1254;67788;-69
2024/02/02 09:49:00;;;;;;;6.60;1.90;;;;;;;18.13;24.39;99977.13;108293;1254;74954;-68
2024/02/02 09:51:45;;;;;;;7.40;1.70;;;;;;;17.57;25.16;99988.67;108329;1252;60395;-68
2024/02/02 09:54:25;;;;;;;3.10;1.30;;;;;;;17.22;24.96;99992.06;108200;1252;61881;-68
2024/02/02 09:56:55;;;;;;;6.00;1.50;;;;;;;17.12;24.91;99993.79;108105;1252;76085;-67
2024/02/02 09:59:46;;;;;;;5.70;1.90;;;;;;;17.51;25.13;99989.39;108091;1254;69141;-68
2024/02/02 10:02:22;;;;;;;7.20;2.00;;;;;;;17.94;24.40;99983.83;108173;1253;74204;-68
2024/02/02 10:04:55;;;;;;;5.40;1.30;;;;;;;18.55;23.63;99990.66;108280;1252;60162;-69
2024/02/02 10:07:31;;;;;;;4.10;1.70;;;;;;;19.21;23.09;99991.02;108301;1254;60277;-69
2024/02/02 10:10:06;;;;;;;5.20;1.40;;;;;;;19.74;22.42;99997.67;108226;1252;72822;-68
2024/02/02 10:12:47;;;;;;;5.50;2.20;;;;;;;19.92;22.32;100002.35;108239;1254;70438;-67
2024/02/02 10:15:21;;;;;;;6.60;1.80;;;;;;;19.55;22.78;100001.98;108309;1254;73009;-67
2024/02/02 10:18:14;;;;;;;9.10;1.90;;;;;;;19.06;23.03;100002.77;108332;1251;61317;-69
2024/02/02 10:20:48;;;;;;;6.10;1.70;;;;;;;18.72;23.12;100004.56;108435;1253;60486;-70
2024/02/02 10:23:27;;;;;;;7.10;1.80;;;;;;;18.50;23.44;100007.58;108407;1251;76054;-67
2024/02/02 10:26:14;;;;;;;4.90;1.80;;;;;;;18.17;23.82;100003.85;108262;1251;70710;-67
2024/02/02 10:28:47;;;;;;;6.30;1.60;;;;;;;17.90;24.06;100011.29;108320;1251;72748;-67
2024/02/02 10:31:23;;;;;;;5.60;1.80;;;;;;;17.42;24.62;100015.38;108276;1254;60343;-68
2024/02/02 10:34:11;;;;;;;6.70;2.10;;;;;;;17.19;25.13;100021.56;108253;1251;59623;-67
2024/02/02 10:37:15;;;;;;;3.60;1.50;;;;;;;16.82;25.35;100019.35;108262;1256;76081;-64
2024/02/02 10:39:53;;;;;;;7.00;2.10;;;;;;;16.68;26.16;100017.42;108111;1251;72664;-68
2024/02/02 10:42:52;;;;;;;5.20;1.80;;;;;;;16.87;25.75;100011.36;108179;1251;73016;-68
2024/02/02 10:45:42;;;;;;;5.30;1.90;;;;;;;16.74;25.59;100016.13;108146;1254;60327;-67
2024/02/02 10:48:36;;;;;;;5.40;1.80;;;;;;;16.34;26.15;100020.95;108222;1251;60346;-69
2024/02/02 10:51:15;;;;;;;9.80;1.80;;;;;;;16.00;26.76;100028.38;108220;1256;73634;-67
2024/02/02 10:54:05;;;;;;;5.40;1.70;;;;;;;15.70;26.86;100028.76;108211;1251;69732;-66
2024/02/02 10:56:41;;;;;;;7.60;1.90;;;;;;;15.44;27.29;100026.20;108252;1251;72911;-67
2024/02/02 10:59:35;;;;;;;9.70;2.20;;;;;;;15.26;27.85;100023.72;108228;1251;60289;-67
2024/02/02 11:02:19;;;;;;;4.00;1.80;;;;;;;14.87;27.86;100025.77;108243;1251;60937;-67
2024/02/02 11:04:59;;;;;;;6.90;2.10;;;;;;;14.44;28.07;100026.68;108190;1256;73943;-67
2024/02/02 11:07:32;;;;;;;10.20;1.70;;;;;;;14.35;29.06;100026.48;108284;1251;71698;-68
2024/02/02 11:10:07;;;;;;;6.60;1.80;;;;;;;14.58;28.56;100026.86;108203;1251;72665;-67
2024/02/02 11:12:46;;;;;;;10.00;2.40;;;;;;;14.57;28.60;100030.25;108182;1251;60415;-67
2024/02/02 11:15:17;;;;;;;7.10;2.00;;;;;;;14.47;28.96;100032.71;108170;1251;59243;-69
2024/02/02 11:18:00;;;;;;;7.30;2.40;;;;;;;14.22;28.94;100034.60;108229;1251;76014;-67
2024/02/02 11:20:47;;;;;;;8.00;2.10;;;;;;;14.23;29.27;100042.15;108310;1251;70485;-66
2024/02/02 11:23:24;;;;;;;4.90;1.80;;;;;;;14.84;28.65;100035.29;108337;1250;74878;-65
2024/02/02 11:26:04;;;;;;;5.70;1.60;;;;;;;15.76;26.86;100035.30;108237;1251;60460;-66
2024/02/02 11:28:38;;;;;;;8.00;2.10;;;;;;;16.51;25.72;100038.63;108206;1251;60281;-68
2024/02/02 11:31:17;;;;;;;7.30;1.90;;;;;;;17.08;25.26;100042.33;108204;1251;76398;-68
2024/02/02 11:33:54;;;;;;;6.80;1.80;;;;;;;17.55;24.40;100042.73;108236;1251;71803;-68
2024/02/02 11:36:30;;;;;;;7.40;2.10;;;;;;;17.87;23.62;100040.05;108317;1255;73937;-68
2024/02/02 11:39:14;;;;;;;8.70;2.10;;;;;;;17.79;23.66;100038.27;108385;1251;60123;-67